sensor_id;sensor_type;location;lat;lon;timestamp;P1;durP1;ratioP1;P2;durP2;ratioP2
75971;SDS011;64651;47.540;19.088;2024-02-23T00:03:00;7.37;;;2.57;;
75971;SDS011;64651;47.540;19.088;2024-02-23T00:08:02;7.03;;;2.30;;
75971;SDS011;64651;47.540;19.088;2024-02-23T00:13:04;5.73;;;1.90;;
75971;SDS011;64651;47.540;19.088;2024-02-23T00:18:07;7.05;;;2.53;;
75971;SDS011;64651;47.540;19.088;2024-02-23T00:23:10;8.30;;;2.85;;
75971;SDS011;64651;47.540;19.088;2024-02-23T00:28:12;7.37;;;2.40;;
75971;SDS011;64651;47.540;19.088;2024-02-23T00:33:14;7.15;;;2.50;;
75971;SDS011;64651;47.540;19.088;2024-02-23T00:38:16;7.43;;;2.47;;
75971;SDS011;64651;47.540;19.088;2024-02-23T00:43:19;7.10;;;2.33;;
75971;SDS011;64651;47.540;19.088;2024-02-23T00:48:22;7.35;;;2.10;;
75971;SDS011;64651;47.540;19.088;2024-02-23T00:53:24;6.97;;;2.33;;
75971;SDS011;64651;47.540;19.088;2024-02-23T00:58:26;8.68;;;2.85;;
75971;SDS011;64651;47.540;19.088;2024-02-23T01:03:28;7.47;;;2.53;;
75971;SDS011;64651;47.540;19.088;2024-02-23T01:08:30;6.90;;;2.35;;
75971;SDS011;64651;47.540;19.088;2024-02-23T01:13:33;7.53;;;2.50;;
75971;SDS011;64651;47.540;19.088;2024-02-23T01:18:35;7.60;;;2.87;;
75971;SDS011;64651;47.540;19.088;2024-02-23T01:23:38;8.65;;;2.92;;
75971;SDS011;64651;47.540;19.088;2024-02-23T01:28:40;7.97;;;2.60;;
75971;SDS011;64651;47.540;19.088;2024-02-23T01:33:42;7.45;;;2.28;;
75971;SDS011;64651;47.540;19.088;2024-02-23T01:38:45;6.90;;;2.50;;
75971;SDS011;64651;47.540;19.088;2024-02-23T01:43:47;7.73;;;2.67;;
75971;SDS011;64651;47.540;19.088;2024-02-23T01:48:49;8.57;;;3.28;;
75971;SDS011;64651;47.540;19.088;2024-02-23T01:53:51;10.87;;;3.23;;
75971;SDS011;64651;47.540;19.088;2024-02-23T01:58:53;7.95;;;2.70;;
75971;SDS011;64651;47.540;19.088;2024-02-23T02:04:00;7.97;;;2.80;;
75971;SDS011;64651;47.540;19.088;2024-02-23T02:09:02;7.63;;;2.47;;
75971;SDS011;64651;47.540;19.088;2024-02-23T02:14:05;8.13;;;2.87;;
75971;SDS011;64651;47.540;19.088;2024-02-23T02:19:07;8.03;;;2.63;;
75971;SDS011;64651;47.540;19.088;2024-02-23T02:24:10;6.47;;;2.03;;
75971;SDS011;64651;47.540;19.088;2024-02-23T02:29:15;7.50;;;2.80;;
75971;SDS011;64651;47.540;19.088;2024-02-23T02:34:18;10.30;;;3.23;;
75971;SDS011;64651;47.540;19.088;2024-02-23T02:39:20;10.73;;;3.28;;
75971;SDS011;64651;47.540;19.088;2024-02-23T02:44:22;8.63;;;2.77;;
75971;SDS011;64651;47.540;19.088;2024-02-23T02:49:24;8.00;;;2.83;;
75971;SDS011;64651;47.540;19.088;2024-02-23T02:54:27;9.40;;;3.30;;
75971;SDS011;64651;47.540;19.088;2024-02-23T02:59:29;9.07;;;2.83;;
75971;SDS011;64651;47.540;19.088;2024-02-23T03:04:35;8.88;;;3.50;;
75971;SDS011;64651;47.540;19.088;2024-02-23T03:09:37;9.33;;;3.70;;
75971;SDS011;64651;47.540;19.088;2024-02-23T03:14:40;11.15;;;3.65;;
75971;SDS011;64651;47.540;19.088;2024-02-23T03:19:42;10.27;;;3.80;;
75971;SDS011;64651;47.540;19.088;2024-02-23T03:24:45;8.67;;;3.33;;
75971;SDS011;64651;47.540;19.088;2024-02-23T03:29:47;7.25;;;2.58;;
75971;SDS011;64651;47.540;19.088;2024-02-23T03:34:49;10.60;;;4.20;;
75971;SDS011;64651;47.540;19.088;2024-02-23T03:39:51;10.63;;;4.03;;
75971;SDS011;64651;47.540;19.088;2024-02-23T03:44:54;10.30;;;3.92;;
75971;SDS011;64651;47.540;19.088;2024-02-23T03:49:56;11.97;;;4.33;;
75971;SDS011;64651;47.540;19.088;2024-02-23T03:54:58;10.18;;;4.18;;
75971;SDS011;64651;47.540;19.088;2024-02-23T04:00:01;10.33;;;4.23;;
75971;SDS011;64651;47.540;19.088;2024-02-23T04:05:04;9.02;;;3.00;;
75971;SDS011;64651;47.540;19.088;2024-02-23T04:10:07;10.02;;;4.22;;
75971;SDS011;64651;47.540;19.088;2024-02-23T04:15:10;11.90;;;4.33;;
75971;SDS011;64651;47.540;19.088;2024-02-23T04:20:12;10.50;;;4.07;;
75971;SDS011;64651;47.540;19.088;2024-02-23T04:25:15;10.13;;;3.87;;
75971;SDS011;64651;47.540;19.088;2024-02-23T04:30:17;10.45;;;3.75;;
75971;SDS011;64651;47.540;19.088;2024-02-23T04:35:19;10.18;;;3.78;;
75971;SDS011;64651;47.540;19.088;2024-02-23T04:40:22;7.60;;;2.50;;
75971;SDS011;64651;47.540;19.088;2024-02-23T04:45:24;8.77;;;2.85;;
75971;SDS011;64651;47.540;19.088;2024-02-23T04:50:26;8.50;;;2.97;;
75971;SDS011;64651;47.540;19.088;2024-02-23T04:55:28;8.73;;;2.92;;
75971;SDS011;64651;47.540;19.088;2024-02-23T05:00:30;10.13;;;3.37;;
75971;SDS011;64651;47.540;19.088;2024-02-23T05:05:35;10.30;;;3.37;;
75971;SDS011;64651;47.540;19.088;2024-02-23T05:10:37;7.80;;;2.92;;
75971;SDS011;64651;47.540;19.088;2024-02-23T05:15:40;8.17;;;3.60;;
75971;SDS011;64651;47.540;19.088;2024-02-23T05:20:42;7.85;;;2.53;;
75971;SDS011;64651;47.540;19.088;2024-02-23T05:25:45;8.65;;;2.80;;
75971;SDS011;64651;47.540;19.088;2024-02-23T05:30:47;8.33;;;2.53;;
75971;SDS011;64651;47.540;19.088;2024-02-23T05:35:49;7.22;;;2.53;;
75971;SDS011;64651;47.540;19.088;2024-02-23T05:40:51;8.80;;;2.57;;
75971;SDS011;64651;47.540;19.088;2024-02-23T05:45:53;8.02;;;2.95;;
75971;SDS011;64651;47.540;19.088;2024-02-23T05:50:59;8.20;;;2.67;;
75971;SDS011;64651;47.540;19.088;2024-02-23T05:56:01;7.90;;;2.63;;
75971;SDS011;64651;47.540;19.088;2024-02-23T06:01:03;8.82;;;2.83;;
75971;SDS011;64651;47.540;19.088;2024-02-23T06:06:08;8.97;;;2.97;;
75971;SDS011;64651;47.540;19.088;2024-02-23T06:11:11;9.23;;;2.60;;
75971;SDS011;64651;47.540;19.088;2024-02-23T06:16:13;8.15;;;2.65;;
75971;SDS011;64651;47.540;19.088;2024-02-23T06:21:15;7.90;;;2.90;;
75971;SDS011;64651;47.540;19.088;2024-02-23T06:26:19;8.15;;;3.15;;
75971;SDS011;64651;47.540;19.088;2024-02-23T06:31:21;10.93;;;4.07;;
75971;SDS011;64651;47.540;19.088;2024-02-23T06:36:23;9.50;;;3.78;;
75971;SDS011;64651;47.540;19.088;2024-02-23T06:41:26;10.82;;;4.12;;
75971;SDS011;64651;47.540;19.088;2024-02-23T06:46:28;10.50;;;3.80;;
75971;SDS011;64651;47.540;19.088;2024-02-23T06:51:33;10.65;;;4.55;;
75971;SDS011;64651;47.540;19.088;2024-02-23T06:56:35;12.00;;;4.53;;
75971;SDS011;64651;47.540;19.088;2024-02-23T07:01:47;13.90;;;5.22;;
75971;SDS011;64651;47.540;19.088;2024-02-23T07:06:50;11.85;;;4.95;;
75971;SDS011;64651;47.540;19.088;2024-02-23T07:11:53;15.23;;;5.10;;
75971;SDS011;64651;47.540;19.088;2024-02-23T07:16:55;10.93;;;5.28;;
75971;SDS011;64651;47.540;19.088;2024-02-23T07:21:57;14.67;;;5.80;;
75971;SDS011;64651;47.540;19.088;2024-02-23T07:26:59;12.37;;;5.43;;
75971;SDS011;64651;47.540;19.088;2024-02-23T07:32:02;13.90;;;6.30;;
75971;SDS011;64651;47.540;19.088;2024-02-23T07:37:04;16.97;;;6.07;;
75971;SDS011;64651;47.540;19.088;2024-02-23T07:42:16;16.40;;;6.05;;
75971;SDS011;64651;47.540;19.088;2024-02-23T07:47:20;14.60;;;6.10;;
75971;SDS011;64651;47.540;19.088;2024-02-23T07:52:22;13.75;;;6.05;;
75971;SDS011;64651;47.540;19.088;2024-02-23T07:57:26;15.57;;;6.20;;
75971;SDS011;64651;47.540;19.088;2024-02-23T08:02:28;12.27;;;5.27;;
75971;SDS011;64651;47.540;19.088;2024-02-23T08:07:30;13.93;;;5.55;;
75971;SDS011;64651;47.540;19.088;2024-02-23T08:12:36;12.80;;;5.90;;
75971;SDS011;64651;47.540;19.088;2024-02-23T08:17:44;13.02;;;5.47;;
75971;SDS011;64651;47.540;19.088;2024-02-23T08:22:46;21.80;;;8.32;;
75971;SDS011;64651;47.540;19.088;2024-02-23T08:27:48;25.10;;;9.33;;
75971;SDS011;64651;47.540;19.088;2024-02-23T08:32:53;16.52;;;7.97;;
75971;SDS011;64651;47.540;19.088;2024-02-23T08:37:59;13.47;;;5.73;;
75971;SDS011;64651;47.540;19.088;2024-02-23T08:43:01;12.32;;;5.47;;
75971;SDS011;64651;47.540;19.088;2024-02-23T08:48:04;20.45;;;9.95;;
75971;SDS011;64651;47.540;19.088;2024-02-23T08:53:07;16.60;;;7.20;;
75971;SDS011;64651;47.540;19.088;2024-02-23T08:58:09;13.57;;;6.28;;
75971;SDS011;64651;47.540;19.088;2024-02-23T09:03:11;15.03;;;6.00;;
75971;SDS011;64651;47.540;19.088;2024-02-23T09:08:13;11.90;;;5.30;;
75971;SDS011;64651;47.540;19.088;2024-02-23T09:13:16;10.23;;;4.82;;
75971;SDS011;64651;47.540;19.088;2024-02-23T09:18:18;11.77;;;4.87;;
75971;SDS011;64651;47.540;19.088;2024-02-23T09:23:20;11.73;;;4.57;;
75971;SDS011;64651;47.540;19.088;2024-02-23T09:28:23;11.13;;;4.33;;
75971;SDS011;64651;47.540;19.088;2024-02-23T09:33:25;10.60;;;4.40;;
75971;SDS011;64651;47.540;19.088;2024-02-23T09:38:27;10.05;;;4.30;;
75971;SDS011;64651;47.540;19.088;2024-02-23T09:43:29;16.70;;;6.70;;
75971;SDS011;64651;47.540;19.088;2024-02-23T09:48:34;18.60;;;8.10;;
75971;SDS011;64651;47.540;19.088;2024-02-23T09:53:37;27.60;;;11.30;;
75971;SDS011;64651;47.540;19.088;2024-02-23T09:58:41;12.85;;;5.00;;
75971;SDS011;64651;47.540;19.088;2024-02-23T10:03:43;11.43;;;4.97;;
75971;SDS011;64651;47.540;19.088;2024-02-23T10:08:47;12.47;;;6.17;;
75971;SDS011;64651;47.540;19.088;2024-02-23T10:13:49;11.52;;;4.05;;
75971;SDS011;64651;47.540;19.088;2024-02-23T10:18:53;12.90;;;5.00;;
75971;SDS011;64651;47.540;19.088;2024-02-23T10:23:56;10.95;;;4.60;;
75971;SDS011;64651;47.540;19.088;2024-02-23T10:28:58;9.93;;;4.93;;
75971;SDS011;64651;47.540;19.088;2024-02-23T10:34:00;8.47;;;2.83;;
75971;SDS011;64651;47.540;19.088;2024-02-23T10:39:11;8.88;;;3.92;;
75971;SDS011;64651;47.540;19.088;2024-02-23T10:44:17;10.43;;;4.53;;
75971;SDS011;64651;47.540;19.088;2024-02-23T10:49:20;17.80;;;7.30;;
75971;SDS011;64651;47.540;19.088;2024-02-23T10:54:28;11.65;;;4.05;;
75971;SDS011;64651;47.540;19.088;2024-02-23T10:59:33;10.07;;;3.80;;
75971;SDS011;64651;47.540;19.088;2024-02-23T11:04:35;10.75;;;4.25;;
75971;SDS011;64651;47.540;19.088;2024-02-23T11:09:39;9.77;;;3.60;;
75971;SDS011;64651;47.540;19.088;2024-02-23T11:14:42;9.93;;;4.07;;
75971;SDS011;64651;47.540;19.088;2024-02-23T11:19:46;9.43;;;4.20;;
75971;SDS011;64651;47.540;19.088;2024-02-23T11:24:51;10.30;;;4.17;;
75971;SDS011;64651;47.540;19.088;2024-02-23T11:30:01;8.57;;;3.75;;
75971;SDS011;64651;47.540;19.088;2024-02-23T11:35:06;10.40;;;3.90;;
75971;SDS011;64651;47.540;19.088;2024-02-23T11:40:09;9.55;;;3.83;;
75971;SDS011;64651;47.540;19.088;2024-02-23T11:45:12;8.50;;;2.85;;
75971;SDS011;64651;47.540;19.088;2024-02-23T11:50:14;9.07;;;3.30;;
75971;SDS011;64651;47.540;19.088;2024-02-23T11:55:20;8.60;;;3.45;;
75971;SDS011;64651;47.540;19.088;2024-02-23T12:00:25;10.47;;;3.70;;
75971;SDS011;64651;47.540;19.088;2024-02-23T12:05:27;9.35;;;4.07;;
75971;SDS011;64651;47.540;19.088;2024-02-23T12:10:30;10.13;;;4.07;;
75971;SDS011;64651;47.540;19.088;2024-02-23T12:15:33;10.70;;;4.17;;
75971;SDS011;64651;47.540;19.088;2024-02-23T12:20:35;10.35;;;4.43;;
75971;SDS011;64651;47.540;19.088;2024-02-23T12:25:38;10.37;;;3.60;;
75971;SDS011;64651;47.540;19.088;2024-02-23T12:30:43;10.18;;;3.80;;
75971;SDS011;64651;47.540;19.088;2024-02-23T12:35:45;10.15;;;3.92;;
75971;SDS011;64651;47.540;19.088;2024-02-23T12:40:48;10.53;;;4.20;;
75971;SDS011;64651;47.540;19.088;2024-02-23T12:45:50;9.10;;;4.05;;
75971;SDS011;64651;47.540;19.088;2024-02-23T12:51:01;12.43;;;4.40;;
75971;SDS011;64651;47.540;19.088;2024-02-23T12:56:07;10.02;;;4.57;;
75971;SDS011;64651;47.540;19.088;2024-02-23T13:01:21;11.60;;;5.12;;
75971;SDS011;64651;47.540;19.088;2024-02-23T13:06:23;11.07;;;4.63;;
75971;SDS011;64651;47.540;19.088;2024-02-23T13:11:25;13.05;;;5.87;;
75971;SDS011;64651;47.540;19.088;2024-02-23T13:16:28;10.20;;;4.93;;
75971;SDS011;64651;47.540;19.088;2024-02-23T13:21:30;13.90;;;6.12;;
75971;SDS011;64651;47.540;19.088;2024-02-23T13:26:34;14.35;;;6.10;;
75971;SDS011;64651;47.540;19.088;2024-02-23T13:31:36;12.73;;;5.60;;
75971;SDS011;64651;47.540;19.088;2024-02-23T13:36:40;14.95;;;6.43;;
75971;SDS011;64651;47.540;19.088;2024-02-23T13:41:42;14.03;;;6.77;;
75971;SDS011;64651;47.540;19.088;2024-02-23T13:46:44;14.48;;;6.70;;
75971;SDS011;64651;47.540;19.088;2024-02-23T13:51:47;14.50;;;7.05;;
75971;SDS011;64651;47.540;19.088;2024-02-23T13:56:49;15.80;;;7.10;;
75971;SDS011;64651;47.540;19.088;2024-02-23T14:01:56;14.38;;;6.50;;
75971;SDS011;64651;47.540;19.088;2024-02-23T14:06:59;14.07;;;6.97;;
75971;SDS011;64651;47.540;19.088;2024-02-23T14:12:01;14.52;;;6.70;;
75971;SDS011;64651;47.540;19.088;2024-02-23T14:17:05;14.43;;;7.00;;
75971;SDS011;64651;47.540;19.088;2024-02-23T14:22:08;14.60;;;7.23;;
75971;SDS011;64651;47.540;19.088;2024-02-23T14:27:10;15.00;;;7.70;;
75971;SDS011;64651;47.540;19.088;2024-02-23T14:32:15;16.93;;;7.90;;
75971;SDS011;64651;47.540;19.088;2024-02-23T14:37:18;43.25;;;20.55;;
75971;SDS011;64651;47.540;19.088;2024-02-23T14:42:21;43.28;;;21.25;;
75971;SDS011;64651;47.540;19.088;2024-02-23T14:47:23;15.87;;;8.60;;
75971;SDS011;64651;47.540;19.088;2024-02-23T14:52:36;29.42;;;13.55;;
75971;SDS011;64651;47.540;19.088;2024-02-23T14:57:38;21.03;;;10.17;;
75971;SDS011;64651;47.540;19.088;2024-02-23T15:02:42;17.08;;;8.75;;
75971;SDS011;64651;47.540;19.088;2024-02-23T15:07:45;18.23;;;8.82;;
75971;SDS011;64651;47.540;19.088;2024-02-23T15:12:47;17.23;;;8.77;;
75971;SDS011;64651;47.540;19.088;2024-02-23T15:17:49;30.52;;;15.20;;
75971;SDS011;64651;47.540;19.088;2024-02-23T15:22:52;24.57;;;13.13;;
75971;SDS011;64651;47.540;19.088;2024-02-23T15:27:55;16.15;;;8.80;;
75971;SDS011;64651;47.540;19.088;2024-02-23T15:33:00;19.25;;;8.70;;
75971;SDS011;64651;47.540;19.088;2024-02-23T15:43:42;22.55;;;11.45;;
75971;SDS011;64651;47.540;19.088;2024-02-23T15:48:44;18.13;;;8.43;;
75971;SDS011;64651;47.540;19.088;2024-02-23T15:53:47;18.92;;;8.70;;
75971;SDS011;64651;47.540;19.088;2024-02-23T15:58:50;19.70;;;10.02;;
75971;SDS011;64651;47.540;19.088;2024-02-23T16:03:52;18.20;;;9.03;;
75971;SDS011;64651;47.540;19.088;2024-02-23T16:08:54;16.75;;;8.77;;
75971;SDS011;64651;47.540;19.088;2024-02-23T16:13:56;24.40;;;11.87;;
75971;SDS011;64651;47.540;19.088;2024-02-23T16:18:59;21.17;;;10.73;;
75971;SDS011;64651;47.540;19.088;2024-02-23T16:24:01;20.33;;;9.15;;
75971;SDS011;64651;47.540;19.088;2024-02-23T16:29:06;18.70;;;9.67;;
75971;SDS011;64651;47.540;19.088;2024-02-23T16:34:08;20.77;;;10.55;;
75971;SDS011;64651;47.540;19.088;2024-02-23T16:39:11;19.20;;;10.33;;
75971;SDS011;64651;47.540;19.088;2024-02-23T16:44:13;21.05;;;10.27;;
75971;SDS011;64651;47.540;19.088;2024-02-23T16:49:18;20.60;;;10.82;;
75971;SDS011;64651;47.540;19.088;2024-02-23T16:54:20;23.40;;;11.77;;
75971;SDS011;64651;47.540;19.088;2024-02-23T16:59:23;26.50;;;13.20;;
75971;SDS011;64651;47.540;19.088;2024-02-23T17:04:25;20.40;;;10.37;;
75971;SDS011;64651;47.540;19.088;2024-02-23T17:09:27;21.17;;;11.02;;
75971;SDS011;64651;47.540;19.088;2024-02-23T17:14:29;23.85;;;12.13;;
75971;SDS011;64651;47.540;19.088;2024-02-23T17:19:32;22.67;;;10.70;;
75971;SDS011;64651;47.540;19.088;2024-02-23T17:24:40;23.98;;;11.35;;
75971;SDS011;64651;47.540;19.088;2024-02-23T17:29:42;22.90;;;11.23;;
75971;SDS011;64651;47.540;19.088;2024-02-23T17:34:45;21.42;;;11.38;;
75971;SDS011;64651;47.540;19.088;2024-02-23T17:39:47;20.27;;;10.55;;
75971;SDS011;64651;47.540;19.088;2024-02-23T17:44:50;21.80;;;10.77;;
75971;SDS011;64651;47.540;19.088;2024-02-23T17:49:52;22.80;;;11.80;;
75971;SDS011;64651;47.540;19.088;2024-02-23T17:54:54;23.23;;;11.40;;
75971;SDS011;64651;47.540;19.088;2024-02-23T17:59:57;21.15;;;12.07;;
75971;SDS011;64651;47.540;19.088;2024-02-23T18:04:59;21.02;;;11.12;;
75971;SDS011;64651;47.540;19.088;2024-02-23T18:10:02;22.30;;;11.70;;
75971;SDS011;64651;47.540;19.088;2024-02-23T18:15:04;24.65;;;12.23;;
75971;SDS011;64651;47.540;19.088;2024-02-23T18:20:07;23.50;;;11.87;;
75971;SDS011;64651;47.540;19.088;2024-02-23T18:25:10;23.95;;;11.45;;
75971;SDS011;64651;47.540;19.088;2024-02-23T18:30:12;23.23;;;12.10;;
75971;SDS011;64651;47.540;19.088;2024-02-23T18:35:15;24.33;;;11.27;;
75971;SDS011;64651;47.540;19.088;2024-02-23T18:40:17;20.85;;;11.07;;
75971;SDS011;64651;47.540;19.088;2024-02-23T18:45:19;22.70;;;11.13;;
75971;SDS011;64651;47.540;19.088;2024-02-23T18:50:22;21.98;;;11.27;;
75971;SDS011;64651;47.540;19.088;2024-02-23T18:55:26;24.90;;;11.85;;
75971;SDS011;64651;47.540;19.088;2024-02-23T19:00:30;20.47;;;11.10;;
75971;SDS011;64651;47.540;19.088;2024-02-23T19:05:33;22.35;;;12.05;;
75971;SDS011;64651;47.540;19.088;2024-02-23T19:10:35;20.87;;;11.43;;
75971;SDS011;64651;47.540;19.088;2024-02-23T19:15:37;21.00;;;10.88;;
75971;SDS011;64651;47.540;19.088;2024-02-23T19:20:41;22.33;;;10.95;;
75971;SDS011;64651;47.540;19.088;2024-02-23T19:25:43;20.97;;;11.23;;
75971;SDS011;64651;47.540;19.088;2024-02-23T19:30:46;20.55;;;10.27;;
75971;SDS011;64651;47.540;19.088;2024-02-23T19:35:49;22.20;;;11.17;;
75971;SDS011;64651;47.540;19.088;2024-02-23T19:40:51;22.37;;;10.60;;
75971;SDS011;64651;47.540;19.088;2024-02-23T19:45:53;20.30;;;10.40;;
75971;SDS011;64651;47.540;19.088;2024-02-23T19:51:08;20.40;;;10.80;;
75971;SDS011;64651;47.540;19.088;2024-02-23T19:56:12;20.27;;;10.57;;
75971;SDS011;64651;47.540;19.088;2024-02-23T20:01:15;22.07;;;10.87;;
75971;SDS011;64651;47.540;19.088;2024-02-23T20:06:17;20.62;;;9.88;;
75971;SDS011;64651;47.540;19.088;2024-02-23T20:11:19;19.25;;;10.05;;
75971;SDS011;64651;47.540;19.088;2024-02-23T20:16:22;20.73;;;10.20;;
75971;SDS011;64651;47.540;19.088;2024-02-23T20:21:25;20.58;;;10.80;;
75971;SDS011;64651;47.540;19.088;2024-02-23T20:26:27;19.87;;;10.10;;
75971;SDS011;64651;47.540;19.088;2024-02-23T20:31:30;22.50;;;10.60;;
75971;SDS011;64651;47.540;19.088;2024-02-23T20:36:33;20.48;;;10.32;;
75971;SDS011;64651;47.540;19.088;2024-02-23T20:41:35;18.73;;;10.00;;
75971;SDS011;64651;47.540;19.088;2024-02-23T20:46:37;21.87;;;10.63;;
75971;SDS011;64651;47.540;19.088;2024-02-23T20:51:40;18.40;;;9.10;;
75971;SDS011;64651;47.540;19.088;2024-02-23T20:56:42;21.55;;;10.80;;
75971;SDS011;64651;47.540;19.088;2024-02-23T21:01:45;18.67;;;9.98;;
75971;SDS011;64651;47.540;19.088;2024-02-23T21:06:47;20.37;;;9.53;;
75971;SDS011;64651;47.540;19.088;2024-02-23T21:11:49;18.65;;;9.40;;
75971;SDS011;64651;47.540;19.088;2024-02-23T21:16:52;18.43;;;9.53;;
75971;SDS011;64651;47.540;19.088;2024-02-23T21:21:54;20.17;;;8.57;;
75971;SDS011;64651;47.540;19.088;2024-02-23T21:26:56;18.15;;;8.38;;
75971;SDS011;64651;47.540;19.088;2024-02-23T21:31:59;18.30;;;7.97;;
75971;SDS011;64651;47.540;19.088;2024-02-23T21:37:01;16.05;;;8.20;;
75971;SDS011;64651;47.540;19.088;2024-02-23T21:42:03;15.80;;;7.53;;
75971;SDS011;64651;47.540;19.088;2024-02-23T21:47:06;17.95;;;7.97;;
75971;SDS011;64651;47.540;19.088;2024-02-23T21:52:08;16.27;;;7.20;;
75971;SDS011;64651;47.540;19.088;2024-02-23T21:57:11;16.67;;;7.53;;
75971;SDS011;64651;47.540;19.088;2024-02-23T22:02:13;16.67;;;7.32;;
75971;SDS011;64651;47.540;19.088;2024-02-23T22:07:15;14.93;;;6.80;;
75971;SDS011;64651;47.540;19.088;2024-02-23T22:12:17;14.05;;;6.55;;
75971;SDS011;64651;47.540;19.088;2024-02-23T22:17:20;13.85;;;6.70;;
75971;SDS011;64651;47.540;19.088;2024-02-23T22:22:23;14.60;;;6.27;;
75971;SDS011;64651;47.540;19.088;2024-02-23T22:27:26;13.00;;;6.40;;
75971;SDS011;64651;47.540;19.088;2024-02-23T22:32:29;13.27;;;6.00;;
75971;SDS011;64651;47.540;19.088;2024-02-23T22:37:32;16.60;;;6.20;;
75971;SDS011;64651;47.540;19.088;2024-02-23T22:42:35;13.75;;;5.75;;
75971;SDS011;64651;47.540;19.088;2024-02-23T22:47:37;13.90;;;6.37;;
75971;SDS011;64651;47.540;19.088;2024-02-23T22:52:39;13.07;;;6.40;;
75971;SDS011;64651;47.540;19.088;2024-02-23T22:57:42;13.77;;;6.37;;
75971;SDS011;64651;47.540;19.088;2024-02-23T23:02:44;13.95;;;6.43;;
75971;SDS011;64651;47.540;19.088;2024-02-23T23:07:47;13.95;;;5.87;;
75971;SDS011;64651;47.540;19.088;2024-02-23T23:12:49;14.23;;;6.10;;
75971;SDS011;64651;47.540;19.088;2024-02-23T23:17:51;14.50;;;6.57;;
75971;SDS011;64651;47.540;19.088;2024-02-23T23:22:54;15.27;;;6.70;;
75971;SDS011;64651;47.540;19.088;2024-02-23T23:27:56;12.43;;;6.30;;
75971;SDS011;64651;47.540;19.088;2024-02-23T23:32:58;14.82;;;6.37;;
75971;SDS011;64651;47.540;19.088;2024-02-23T23:38:01;14.93;;;5.77;;
75971;SDS011;64651;47.540;19.088;2024-02-23T23:43:03;13.32;;;6.20;;
75971;SDS011;64651;47.540;19.088;2024-02-23T23:48:05;13.37;;;6.27;;
75971;SDS011;64651;47.540;19.088;2024-02-23T23:53:08;13.23;;;5.70;;
75971;SDS011;64651;47.540;19.088;2024-02-23T23:58:11;13.90;;;6.20;;
